Modello, Florida
Current Conditions -  °F | °C
As of 5:58 PM on Tuesday 27 Jan 2015 (Local Time) from KHST Reporting Station
Clear Clear  
Wind Chill: 65°   Ceiling: Unl
Heat Index: 65°   Visibility: 10mi
Dew Point: 49°   Wind: 15mph
Humidity: 57%   Direction: 270°W
Pressure: 30.02"   Gusts: NA
Location:  25.4848°N, 80.5094°W
Report Text: KHST 272258Z AUTO 27013KT 10SM CLR 18/10 A3002 RMK AO2 SLP169 T01820095
Loading
Personal Weather Stations






























Interactive Weather Map New forecast layout! Learn more

10-Day Weather Forecast

Advertisements
Track Severe Weather on mobile